X  Close Metar Aviation Weather Data        EGOP Pembrey
Temperature
14°C Temperature
9°C Dewpoint
72% Humidity



Wind
10 MPH
17 KM/H
4 M/S
9 KTS



80°
E
Current Conditions

Clear Clear
Pressure 1015 (hPa) - 29.97 (inHg)
Visibility 6 (mile) - 10 (km)
Airport
Airport-code EGOP

Location: Pembrey
Distance: 4 (mi)

Metar:
METAR EGOP 200250Z AUTO 08009KT 9999 NCD 14/09 Q1015

Time: 20-05-2024 03:50 BST